WZZ420 EYVI-EETN
Flight info
| Callsign | WZZ420 |
|---|---|
| Flight time | 0h 55m |
| Altitude | 38000 |
| Route | TAGOL DCT LUNIT DCT KEMET |
| Aircraft | A20N/M-SDE2E3FGHIRWXY/LB1 |
Departure
| Time | 2026-04-29 19:49 |
|---|---|
| Airport | Vilnius International Airport (EYVI) |
Arrival
| Time | 2026-04-29 20:44 |
|---|---|
| Airport | Lennart Meri Tallinn Airport (EETN) |
| Time | Latitude | Longitude | Altitude | Speed | Heading |
|---|---|---|---|---|---|
| 2026-04-29 19:32 | 54.64175 | 25.28572 | 644 ft | 0 kts | 356° |
| 2026-04-29 19:45 | 54.64208 | 25.28587 | 645 ft | 8 kts | 41° |
| 2026-04-29 19:46 | 54.64202 | 25.28676 | 649 ft | 9 kts | 144° |
| 2026-04-29 19:46 | 54.64149 | 25.28745 | 649 ft | 11 kts | 96° |
| 2026-04-29 19:46 | 54.64205 | 25.28819 | 650 ft | 11 kts | 21° |
| 2026-04-29 19:46 | 54.64281 | 25.28870 | 652 ft | 12 kts | 21° |
| 2026-04-29 19:47 | 54.64365 | 25.28927 | 654 ft | 14 kts | 24° |
| 2026-04-29 19:47 | 54.64455 | 25.28994 | 657 ft | 15 kts | 21° |
| 2026-04-29 19:47 | 54.64502 | 25.29118 | 658 ft | 16 kts | 118° |
| 2026-04-29 19:47 | 54.64453 | 25.29257 | 656 ft | 13 kts | 141° |
| 2026-04-29 19:48 | 54.64379 | 25.29249 | 657 ft | 11 kts | 199° |
| 2026-04-29 19:48 | 54.64272 | 25.29177 | 655 ft | 48 kts | 201° |
| 2026-04-29 19:48 | 54.63453 | 25.28607 | 612 ft | 135 kts | 202° |
| 2026-04-29 19:48 | 54.62490 | 25.27914 | 929 ft | 153 kts | 204° |
| 2026-04-29 19:49 | 54.61514 | 25.27188 | 1625 ft | 153 kts | 205° |
| 2026-04-29 19:49 | 54.60525 | 25.26500 | 2244 ft | 155 kts | 205° |
| 2026-04-29 19:49 | 54.59471 | 25.25793 | 2662 ft | 171 kts | 204° |
| 2026-04-29 19:49 | 54.58298 | 25.25004 | 3081 ft | 191 kts | 204° |
| 2026-04-29 19:50 | 54.57000 | 25.24118 | 3566 ft | 211 kts | 204° |
| 2026-04-29 19:50 | 54.56067 | 25.23478 | 3911 ft | 225 kts | 204° |
| 2026-04-29 19:50 | 54.54558 | 25.22439 | 4510 ft | 245 kts | 204° |
| 2026-04-29 19:50 | 54.52936 | 25.21324 | 5523 ft | 250 kts | 204° |
| 2026-04-29 19:51 | 54.51400 | 25.19954 | 6648 ft | 249 kts | 223° |
| 2026-04-29 19:51 | 54.50392 | 25.17572 | 7602 ft | 249 kts | 252° |
| 2026-04-29 19:51 | 54.50188 | 25.14646 | 8513 ft | 249 kts | 282° |
| 2026-04-29 19:51 | 54.50784 | 25.10704 | 9457 ft | 271 kts | 290° |
| 2026-04-29 19:52 | 54.51176 | 25.08584 | 10005 ft | 278 kts | 291° |
| 2026-04-29 19:52 | 54.51756 | 25.05365 | 10852 ft | 289 kts | 290° |
| 2026-04-29 19:52 | 54.52493 | 25.02033 | 11300 ft | 308 kts | 303° |
| 2026-04-29 19:52 | 54.53890 | 24.99153 | 11791 ft | 319 kts | 324° |
| 2026-04-29 19:53 | 54.55830 | 24.97348 | 12718 ft | 317 kts | 345° |
| 2026-04-29 19:53 | 54.58001 | 24.96852 | 13721 ft | 317 kts | 4° |
| 2026-04-29 19:53 | 54.60186 | 24.97433 | 14623 ft | 319 kts | 10° |
| 2026-04-29 19:53 | 54.62386 | 24.98138 | 15404 ft | 324 kts | 11° |
| 2026-04-29 19:54 | 54.66871 | 24.99590 | 17031 ft | 332 kts | 10° |
| 2026-04-29 19:54 | 54.69153 | 25.00322 | 17824 ft | 336 kts | 10° |
| 2026-04-29 19:54 | 54.71437 | 25.01050 | 18600 ft | 340 kts | 10° |
| 2026-04-29 19:55 | 54.73776 | 25.01795 | 19316 ft | 343 kts | 10° |
| 2026-04-29 19:55 | 54.76127 | 25.02543 | 20053 ft | 345 kts | 10° |
| 2026-04-29 19:55 | 54.78492 | 25.03294 | 20835 ft | 346 kts | 11° |
| 2026-04-29 19:55 | 54.80866 | 25.04050 | 21544 ft | 349 kts | 11° |
| 2026-04-29 19:56 | 54.83262 | 25.04814 | 22243 ft | 351 kts | 11° |
| 2026-04-29 19:56 | 54.85676 | 25.05584 | 22952 ft | 354 kts | 11° |
| 2026-04-29 19:56 | 54.88111 | 25.06362 | 23627 ft | 357 kts | 11° |
| 2026-04-29 19:56 | 54.90562 | 25.07146 | 24253 ft | 360 kts | 11° |
| 2026-04-29 19:57 | 54.93026 | 25.07933 | 24879 ft | 360 kts | 11° |
| 2026-04-29 19:57 | 54.95493 | 25.08723 | 25471 ft | 361 kts | 12° |
| 2026-04-29 19:57 | 54.97973 | 25.09520 | 26042 ft | 363 kts | 12° |
| 2026-04-29 19:57 | 55.00461 | 25.10321 | 26601 ft | 364 kts | 12° |
| 2026-04-29 19:58 | 55.02956 | 25.11127 | 27156 ft | 366 kts | 12° |
| 2026-04-29 19:58 | 55.05459 | 25.11936 | 27772 ft | 365 kts | 12° |
| 2026-04-29 19:58 | 55.07964 | 25.12748 | 28259 ft | 368 kts | 12° |
| 2026-04-29 19:58 | 55.10485 | 25.13566 | 28730 ft | 370 kts | 12° |
| 2026-04-29 19:59 | 55.13022 | 25.14390 | 29201 ft | 371 kts | 12° |
| 2026-04-29 19:59 | 55.15568 | 25.15218 | 29652 ft | 373 kts | 12° |
| 2026-04-29 19:59 | 55.18129 | 25.16051 | 30090 ft | 375 kts | 12° |
| 2026-04-29 19:59 | 55.20701 | 25.16889 | 30513 ft | 377 kts | 12° |
| 2026-04-29 20:00 | 55.23291 | 25.17735 | 30835 ft | 380 kts | 12° |
| 2026-04-29 20:00 | 55.25905 | 25.18589 | 31144 ft | 384 kts | 12° |
| 2026-04-29 20:00 | 55.28542 | 25.19453 | 31462 ft | 387 kts | 12° |
| 2026-04-29 20:00 | 55.31207 | 25.20175 | 31863 ft | 389 kts | 8° |
| 2026-04-29 20:01 | 55.33909 | 25.20507 | 32262 ft | 390 kts | 6° |
| 2026-04-29 20:01 | 55.36620 | 25.20828 | 32654 ft | 391 kts | 6° |
| 2026-04-29 20:01 | 55.39335 | 25.21165 | 33047 ft | 391 kts | 6° |
| 2026-04-29 20:01 | 55.42052 | 25.21505 | 33429 ft | 392 kts | 6° |
| 2026-04-29 20:02 | 55.44772 | 25.21842 | 33803 ft | 392 kts | 6° |
| 2026-04-29 20:02 | 55.47503 | 25.22053 | 34201 ft | 393 kts | 2° |
| 2026-04-29 20:02 | 55.50236 | 25.21843 | 34561 ft | 394 kts | 0° |
| 2026-04-29 20:02 | 55.52047 | 25.21676 | 34725 ft | 395 kts | 0° |
| 2026-04-29 20:03 | 55.55685 | 25.21367 | 35071 ft | 396 kts | 0° |
| 2026-04-29 20:03 | 55.58443 | 25.21136 | 35340 ft | 397 kts | 0° |
| 2026-04-29 20:03 | 55.61209 | 25.20900 | 35593 ft | 398 kts | 360° |
| 2026-04-29 20:03 | 55.63982 | 25.20659 | 35850 ft | 399 kts | 360° |
| 2026-04-29 20:04 | 55.66761 | 25.20415 | 36096 ft | 401 kts | 360° |
| 2026-04-29 20:04 | 55.69550 | 25.20169 | 36339 ft | 402 kts | 359° |
| 2026-04-29 20:04 | 55.72342 | 25.19922 | 36577 ft | 403 kts | 359° |
| 2026-04-29 20:04 | 55.75142 | 25.19673 | 36811 ft | 403 kts | 359° |
| 2026-04-29 20:05 | 55.77950 | 25.19424 | 37040 ft | 404 kts | 359° |
| 2026-04-29 20:05 | 55.80766 | 25.19174 | 37258 ft | 405 kts | 359° |
| 2026-04-29 20:05 | 55.83586 | 25.18922 | 37481 ft | 406 kts | 359° |
| 2026-04-29 20:05 | 55.86413 | 25.18670 | 37698 ft | 407 kts | 359° |
| 2026-04-29 20:06 | 55.89243 | 25.18418 | 37909 ft | 408 kts | 359° |
| 2026-04-29 20:06 | 55.92087 | 25.18164 | 38120 ft | 409 kts | 359° |
| 2026-04-29 20:06 | 55.94930 | 25.17909 | 38321 ft | 410 kts | 359° |
| 2026-04-29 20:06 | 55.97790 | 25.17653 | 38369 ft | 414 kts | 359° |
| 2026-04-29 20:07 | 56.03616 | 25.17129 | 38351 ft | 423 kts | 359° |
| 2026-04-29 20:07 | 56.09540 | 25.16594 | 38366 ft | 429 kts | 359° |
| 2026-04-29 20:08 | 56.14516 | 25.16143 | 38369 ft | 432 kts | 359° |
| 2026-04-29 20:08 | 56.21546 | 25.14997 | 38368 ft | 436 kts | 355° |
| 2026-04-29 20:09 | 56.27586 | 25.13739 | 38366 ft | 437 kts | 355° |
| 2026-04-29 20:09 | 56.33601 | 25.12488 | 38366 ft | 438 kts | 355° |
| 2026-04-29 20:10 | 56.39666 | 25.11210 | 38371 ft | 439 kts | 355° |
| 2026-04-29 20:10 | 56.45736 | 25.09923 | 38370 ft | 439 kts | 355° |
| 2026-04-29 20:11 | 56.51814 | 25.08630 | 38363 ft | 440 kts | 355° |
| 2026-04-29 20:11 | 56.57891 | 25.07332 | 38356 ft | 438 kts | 355° |
| 2026-04-29 20:12 | 56.63928 | 25.06038 | 38366 ft | 435 kts | 355° |
| 2026-04-29 20:12 | 56.69945 | 25.04747 | 38351 ft | 436 kts | 355° |
| 2026-04-29 20:13 | 56.75979 | 25.03447 | 38347 ft | 437 kts | 355° |
| 2026-04-29 20:13 | 56.82019 | 25.02141 | 38347 ft | 437 kts | 355° |
| 2026-04-29 20:14 | 56.88066 | 25.00829 | 38349 ft | 438 kts | 355° |
| 2026-04-29 20:14 | 56.94115 | 24.99512 | 38355 ft | 438 kts | 355° |
| 2026-04-29 20:15 | 57.00167 | 24.98191 | 38365 ft | 438 kts | 355° |
| 2026-04-29 20:15 | 57.06220 | 24.96864 | 38366 ft | 438 kts | 355° |
| 2026-04-29 20:16 | 57.12264 | 24.95535 | 38365 ft | 437 kts | 355° |
| 2026-04-29 20:16 | 57.18294 | 24.94205 | 38365 ft | 436 kts | 355° |
| 2026-04-29 20:17 | 57.24320 | 24.92872 | 38364 ft | 436 kts | 355° |
| 2026-04-29 20:17 | 57.30343 | 24.91535 | 38362 ft | 436 kts | 355° |
| 2026-04-29 20:18 | 57.36359 | 24.90195 | 38360 ft | 435 kts | 355° |
| 2026-04-29 20:18 | 57.42244 | 24.88875 | 38365 ft | 409 kts | 355° |
| 2026-04-29 20:19 | 57.45012 | 24.88252 | 38363 ft | 393 kts | 355° |
| 2026-04-29 20:19 | 57.47715 | 24.87646 | 38362 ft | 393 kts | 355° |
| 2026-04-29 20:19 | 57.53213 | 24.86417 | 38362 ft | 402 kts | 355° |
| 2026-04-29 20:20 | 57.58761 | 24.85166 | 38359 ft | 401 kts | 355° |
| 2026-04-29 20:20 | 57.64280 | 24.83916 | 38360 ft | 398 kts | 355° |
| 2026-04-29 20:21 | 57.69739 | 24.82677 | 38242 ft | 398 kts | 355° |
| 2026-04-29 20:21 | 57.72481 | 24.82053 | 37800 ft | 397 kts | 355° |
| 2026-04-29 20:21 | 57.75228 | 24.81427 | 37103 ft | 398 kts | 355° |
| 2026-04-29 20:22 | 57.77986 | 24.80797 | 36260 ft | 401 kts | 355° |
| 2026-04-29 20:22 | 57.80758 | 24.80162 | 35495 ft | 401 kts | 355° |
| 2026-04-29 20:22 | 57.83516 | 24.79528 | 34797 ft | 398 kts | 355° |
| 2026-04-29 20:22 | 57.86256 | 24.78896 | 34042 ft | 396 kts | 356° |
| 2026-04-29 20:23 | 57.88983 | 24.78269 | 33155 ft | 394 kts | 356° |
| 2026-04-29 20:23 | 57.91707 | 24.77643 | 32240 ft | 394 kts | 356° |
| 2026-04-29 20:23 | 57.94416 | 24.77019 | 31548 ft | 390 kts | 356° |
| 2026-04-29 20:23 | 57.97077 | 24.76403 | 31065 ft | 381 kts | 356° |
| 2026-04-29 20:24 | 57.99683 | 24.75799 | 30541 ft | 374 kts | 356° |
| 2026-04-29 20:24 | 58.02241 | 24.75207 | 29990 ft | 366 kts | 356° |
| 2026-04-29 20:24 | 58.04741 | 24.74628 | 29502 ft | 358 kts | 356° |
| 2026-04-29 20:24 | 58.07189 | 24.74061 | 29016 ft | 350 kts | 356° |
| 2026-04-29 20:25 | 58.09585 | 24.73505 | 28545 ft | 343 kts | 356° |
| 2026-04-29 20:25 | 58.11932 | 24.72959 | 28075 ft | 337 kts | 356° |
| 2026-04-29 20:25 | 58.14236 | 24.72423 | 27622 ft | 332 kts | 356° |
| 2026-04-29 20:25 | 58.16609 | 24.71879 | 27150 ft | 355 kts | 356° |
| 2026-04-29 20:26 | 58.19105 | 24.71306 | 26644 ft | 365 kts | 356° |
| 2026-04-29 20:26 | 58.21634 | 24.70714 | 26152 ft | 366 kts | 355° |
| 2026-04-29 20:26 | 58.24145 | 24.70121 | 25636 ft | 362 kts | 355° |
| 2026-04-29 20:26 | 58.26624 | 24.69535 | 25143 ft | 356 kts | 355° |
| 2026-04-29 20:27 | 58.29056 | 24.68961 | 24650 ft | 349 kts | 355° |
| 2026-04-29 20:27 | 58.30643 | 24.68587 | 24318 ft | 345 kts | 355° |
| 2026-04-29 20:27 | 58.33805 | 24.67844 | 23849 ft | 342 kts | 355° |
| 2026-04-29 20:27 | 58.36197 | 24.67285 | 23584 ft | 348 kts | 355° |
| 2026-04-29 20:28 | 58.38589 | 24.66723 | 23299 ft | 344 kts | 355° |
| 2026-04-29 20:28 | 58.40956 | 24.66164 | 22777 ft | 341 kts | 355° |
| 2026-04-29 20:28 | 58.43294 | 24.65610 | 22242 ft | 336 kts | 355° |
| 2026-04-29 20:28 | 58.45598 | 24.65063 | 21709 ft | 331 kts | 355° |
| 2026-04-29 20:29 | 58.47865 | 24.64525 | 21200 ft | 326 kts | 355° |
| 2026-04-29 20:29 | 58.50098 | 24.63995 | 20691 ft | 321 kts | 355° |
| 2026-04-29 20:29 | 58.52234 | 24.63488 | 20207 ft | 317 kts | 355° |
| 2026-04-29 20:29 | 58.54445 | 24.62962 | 19712 ft | 313 kts | 355° |
| 2026-04-29 20:30 | 58.56592 | 24.62451 | 19222 ft | 309 kts | 355° |
| 2026-04-29 20:30 | 58.58718 | 24.61945 | 18746 ft | 306 kts | 355° |
| 2026-04-29 20:30 | 58.60821 | 24.61443 | 18237 ft | 303 kts | 355° |
| 2026-04-29 20:30 | 58.62896 | 24.60947 | 17762 ft | 298 kts | 354° |
| 2026-04-29 20:31 | 58.64975 | 24.60452 | 17314 ft | 314 kts | 354° |
| 2026-04-29 20:31 | 58.67228 | 24.59921 | 16809 ft | 335 kts | 354° |
| 2026-04-29 20:31 | 58.69570 | 24.59380 | 16306 ft | 341 kts | 356° |
| 2026-04-29 20:31 | 58.71931 | 24.59447 | 15793 ft | 339 kts | 6° |
| 2026-04-29 20:32 | 58.74218 | 24.60415 | 15297 ft | 335 kts | 16° |
| 2026-04-29 20:32 | 58.76360 | 24.62094 | 14812 ft | 329 kts | 21° |
| 2026-04-29 20:32 | 58.78445 | 24.63822 | 14340 ft | 323 kts | 20° |
| 2026-04-29 20:32 | 58.79835 | 24.64965 | 13928 ft | 321 kts | 20° |
| 2026-04-29 20:33 | 58.82607 | 24.67225 | 12663 ft | 330 kts | 20° |
| 2026-04-29 20:33 | 58.84710 | 24.68954 | 12095 ft | 325 kts | 21° |
| 2026-04-29 20:33 | 58.86754 | 24.70654 | 11808 ft | 314 kts | 21° |
| 2026-04-29 20:33 | 58.88726 | 24.72299 | 11551 ft | 308 kts | 21° |
| 2026-04-29 20:34 | 58.90710 | 24.73945 | 11301 ft | 311 kts | 21° |
| 2026-04-29 20:34 | 58.92696 | 24.75593 | 11048 ft | 309 kts | 21° |
| 2026-04-29 20:34 | 58.94668 | 24.77230 | 10789 ft | 308 kts | 21° |
| 2026-04-29 20:34 | 58.96624 | 24.78856 | 10555 ft | 301 kts | 21° |
| 2026-04-29 20:35 | 58.98505 | 24.80425 | 10433 ft | 288 kts | 21° |
| 2026-04-29 20:35 | 59.00301 | 24.81927 | 10323 ft | 274 kts | 21° |
| 2026-04-29 20:35 | 59.02023 | 24.83365 | 10021 ft | 267 kts | 20° |
| 2026-04-29 20:35 | 59.03718 | 24.84778 | 9619 ft | 264 kts | 20° |
| 2026-04-29 20:36 | 59.05397 | 24.86178 | 9219 ft | 261 kts | 20° |
| 2026-04-29 20:36 | 59.07064 | 24.87572 | 8810 ft | 261 kts | 21° |
| 2026-04-29 20:36 | 59.08736 | 24.88971 | 8415 ft | 262 kts | 21° |
| 2026-04-29 20:36 | 59.10411 | 24.90377 | 8023 ft | 261 kts | 21° |
| 2026-04-29 20:37 | 59.12074 | 24.91775 | 7637 ft | 260 kts | 21° |
| 2026-04-29 20:37 | 59.13743 | 24.93177 | 7254 ft | 262 kts | 21° |
| 2026-04-29 20:37 | 59.15413 | 24.94583 | 6877 ft | 261 kts | 21° |
| 2026-04-29 20:37 | 59.17078 | 24.95987 | 6470 ft | 260 kts | 21° |
| 2026-04-29 20:38 | 59.18178 | 24.96914 | 6212 ft | 259 kts | 21° |
| 2026-04-29 20:38 | 59.19828 | 24.98307 | 5821 ft | 258 kts | 21° |
| 2026-04-29 20:38 | 59.22020 | 25.00154 | 5291 ft | 256 kts | 21° |
| 2026-04-29 20:38 | 59.23102 | 25.01044 | 5126 ft | 252 kts | 21° |
| 2026-04-29 20:39 | 59.24689 | 25.02379 | 4878 ft | 245 kts | 23° |
| 2026-04-29 20:39 | 59.26296 | 25.03890 | 4662 ft | 279 kts | 24° |
| 2026-04-29 20:39 | 59.28133 | 25.05743 | 4204 ft | 310 kts | 26° |
| 2026-04-29 20:39 | 59.30074 | 25.07785 | 3709 ft | 322 kts | 25° |
| 2026-04-29 20:40 | 59.32098 | 25.09693 | 3179 ft | 322 kts | 22° |
| 2026-04-29 20:40 | 59.34111 | 25.11446 | 2862 ft | 311 kts | 21° |
| 2026-04-29 20:40 | 59.36041 | 25.13048 | 2482 ft | 289 kts | 19° |
| 2026-04-29 20:40 | 59.37798 | 25.14379 | 2463 ft | 254 kts | 13° |
| 2026-04-29 20:41 | 59.39445 | 25.14762 | 2172 ft | 229 kts | 349° |
| 2026-04-29 20:41 | 59.40825 | 25.13492 | 1928 ft | 229 kts | 311° |
| 2026-04-29 20:41 | 59.41502 | 25.10668 | 1929 ft | 233 kts | 282° |
| 2026-04-29 20:41 | 59.41474 | 25.07458 | 1791 ft | 237 kts | 265° |
| 2026-04-29 20:42 | 59.41275 | 25.04263 | 1844 ft | 235 kts | 270° |
| 2026-04-29 20:42 | 59.41283 | 25.01034 | 1716 ft | 238 kts | 275° |
| 2026-04-29 20:42 | 59.41294 | 24.97820 | 1323 ft | 227 kts | 272° |
| 2026-04-29 20:42 | 59.41309 | 24.94861 | 1008 ft | 216 kts | 271° |
| 2026-04-29 20:43 | 59.41313 | 24.91909 | 702 ft | 215 kts | 271° |
| 2026-04-29 20:43 | 59.41316 | 24.89092 | 463 ft | 189 kts | 270° |
| 2026-04-29 20:43 | 59.41316 | 24.86768 | 227 ft | 157 kts | 271° |
| 2026-04-29 20:43 | 59.41324 | 24.84801 | 162 ft | 128 kts | 269° |
| 2026-04-29 20:44 | 59.41322 | 24.83430 | 164 ft | 75 kts | 271° |
| 2026-04-29 20:44 | 59.41326 | 24.82610 | 159 ft | 57 kts | 270° |
| 2026-04-29 20:44 | 59.41329 | 24.81895 | 164 ft | 44 kts | 271° |
| 2026-04-29 20:44 | 59.41330 | 24.81376 | 163 ft | 35 kts | 270° |
| 2026-04-29 20:45 | 59.41331 | 24.80905 | 160 ft | 32 kts | 270° |
| 2026-04-29 20:45 | 59.41363 | 24.80626 | 159 ft | 19 kts | 311° |
| 2026-04-29 20:45 | 59.41459 | 24.80467 | 161 ft | 17 kts | 353° |
| 2026-04-29 20:45 | 59.41528 | 24.80345 | 161 ft | 16 kts | 272° |
| 2026-04-29 20:46 | 59.41549 | 24.80206 | 161 ft | 5 kts | 345° |
| 2026-04-29 20:46 | 59.41570 | 24.80204 | 161 ft | 4 kts | 359° |
| 2026-04-29 20:46 | 59.41583 | 24.80204 | 161 ft | 0 kts | 0° |